メインページ
METAR-TAF:

METAR-TAF

空港 :

アトランタ, ジョージア州, アメリカ合衆国

ハーツフィールド・ジャクソン・アトランタ国際空港

緯度: 33-38-25N, 経度: 084-25-37W, 海抜: 313m

現時点の気象観測

当レポートは52分前の18:52(UTC)に作成
南/南東の風 10kt、最大20ktの突風を伴う
気温 23°C
湿度 47%
気圧 1022 hPa
視程: 16.1km
高度5000ftの雲は散在している
高度10000ftの千切れ雲あり
高度25000ftの千切れ雲あり

METAR: KATL 251852Z 16010G20KT 10SM SCT050 BKN100 BKN250 23/11 A3017 RMK AO2 SLP212 T02330111 $

時間: 15:44 (19:44 UTC)

予報

当レポートは1時間14分前の18:30(UTC)に作成
予報は25日の 19時(UTC)から 26日の 24時(UTC)まで有効
南/南東の風 10kt、最大20ktの突風を伴う
視程: 10km
高度4500ftの雲は散在している
高度25000ftの千切れ雲あり
25日の 2300時(UTC)から
南/南東の風 9kt
視程: 10km
高度5000ftの千切れ雲あり
26日の 0200時(UTC)から
の風 6kt
視程: 10km
高度4000ftの曇り
近辺でにわか雨
26日の 0400時(UTC)から
南/南東の風 8kt
視程: 9.7km
高度3500ftの曇り
にわか雨
確率 30%
26日の 04時(UTC)から 26日の 10時(UTC)まで
視程: 6.4km
高度2500ftの千切れ雲あり, 積乱雲.
激しい雷雨, 雨
26日の 1000時(UTC)から
南/南東の風 8kt
視程: 9.7km
高度1200ftの雲は散在している
高度2500ftの千切れ雲あり
弱いにわか雨
26日の 1500時(UTC)から
の風 12kt
視程: 10km
高度3500ftの千切れ雲あり
近辺でにわか雨

TAF: KATL 251830Z 2519/2624 15010G20KT P6SM SCT045 BKN250 FM252300 15009KT P6SM BKN050 FM260200 17006KT P6SM VCSH OVC040 FM260400 15008KT 6SM SHRA OVC035 PROB30 2604/2610 4SM TSRA BKN025CB FM261000 16008KT 6SM -SHRA SCT012 BKN025 FM261500 17012KT P6SM VCSH BKN035

4,000以上の空港の気象観測と天気予報(METAR報とTAF報)

利用可能な観測所は地図上に黄色い丸と赤い丸で示す。

丸の上にカーソルを重ねると観測所名を参照できる。

次にクリックすると気象観測と天気予報を参照できる。

マップの切り替え:黒色「×」印の緑ボタンをクリックして拡大、「-」印の緑ボタンをクリックして縮小、緑色の三角印をクリックして隣りの地図に切り替え


METAR-TAF: